Time;durP1;ratioP1;P1;durP2;ratioP2;P2;SDS_P1;SDS_P2;PMS_P1;PMS_P2;Temp;Humidity;BMP_temperature;BMP_pressure;BME280_temperature;BME280_humidity;BME280_pressure;Samples;Min_cycle;Max_cycle;Signal;HPM_P1;HPM_P2
2023/02/11 00:00:18;;;;;;;3.05;2.95;;;-2.90;89.50;;;;;;6093604;23;20712;-75
2023/02/11 00:02:45;;;;;;;3.10;3.00;;;-2.90;89.20;;;;;;6119303;23;20730;-77
2023/02/11 00:05:14;;;;;;;3.05;2.95;;;-3.00;90.60;;;;;;6095383;23;20383;-76
2023/02/11 00:07:41;;;;;;;2.97;2.87;;;-3.10;90.80;;;;;;6096948;23;20466;-75
2023/02/11 00:10:08;;;;;;;3.08;2.97;;;-3.20;91.30;;;;;;6097366;23;20464;-76
2023/02/11 00:12:37;;;;;;;3.35;3.25;;;-3.20;91.50;;;;;;6097382;23;20415;-76
2023/02/11 00:15:06;;;;;;;3.10;3.00;;;-3.40;91.20;;;;;;6123767;23;20429;-75
2023/02/11 00:17:33;;;;;;;3.30;3.10;;;-3.40;91.70;;;;;;6097552;23;20392;-76
2023/02/11 00:20:00;;;;;;;3.63;3.42;;;-3.50;92.30;;;;;;6097277;23;20422;-75
2023/02/11 00:22:27;;;;;;;3.30;3.10;;;-3.50;93.80;;;;;;6097062;23;20383;-76
2023/02/11 00:24:55;;;;;;;3.35;3.25;;;-3.40;96.50;;;;;;6097154;23;20454;-75
2023/02/11 00:27:23;;;;;;;3.22;3.13;;;-3.40;95.40;;;;;;6097480;23;20462;-76
2023/02/11 00:29:49;;;;;;;3.55;3.40;;;-3.40;93.70;;;;;;6097074;23;20407;-75
2023/02/11 00:32:16;;;;;;;3.70;3.50;;;-3.40;92.20;;;;;;6097838;23;20450;-76
2023/02/11 00:34:43;;;;;;;3.35;3.25;;;-3.30;92.30;;;;;;6097641;23;20402;-75
2023/02/11 00:37:10;;;;;;;3.30;3.20;;;-3.30;92.90;;;;;;6097808;23;20441;-75
2023/02/11 00:39:37;;;;;;;3.47;3.38;;;-3.30;94.40;;;;;;6098339;23;20407;-75
2023/02/11 00:42:04;;;;;;;3.20;3.10;;;-3.40;95.20;;;;;;6097014;23;20391;-76
2023/02/11 00:44:31;;;;;;;3.55;3.40;;;-3.50;95.30;;;;;;6097889;23;20439;-76
2023/02/11 00:46:58;;;;;;;3.15;3.05;;;-3.50;94.60;;;;;;6122445;23;20460;-75
2023/02/11 00:49:25;;;;;;;3.63;3.45;;;-3.50;93.80;;;;;;6097807;23;20376;-76
2023/02/11 00:51:52;;;;;;;3.47;3.33;;;-3.50;93.80;;;;;;6096649;23;20395;-75
2023/02/11 00:54:19;;;;;;;4.40;4.15;;;-3.60;94.80;;;;;;6097957;23;20455;-76
2023/02/11 00:56:45;;;;;;;3.97;3.77;;;-3.60;94.90;;;;;;6095817;23;20417;-76
2023/02/11 00:59:12;;;;;;;3.70;3.60;;;-3.50;94.50;;;;;;6097632;23;20748;-76
2023/02/11 01:01:39;;;;;;;4.00;3.80;;;-3.60;94.50;;;;;;6097272;23;20372;-75
2023/02/11 01:04:06;;;;;;;4.28;4.07;;;-3.50;93.80;;;;;;6097019;23;20439;-75
2023/02/11 01:06:33;;;;;;;3.28;3.17;;;-3.50;93.70;;;;;;6097313;23;20686;-76
2023/02/11 01:09:00;;;;;;;3.50;3.30;;;-3.50;93.60;;;;;;6096874;23;20376;-76
2023/02/11 01:11:26;;;;;;;3.70;3.50;;;-3.50;93.80;;;;;;6097267;23;20470;-76
2023/02/11 01:13:53;;;;;;;3.03;2.92;;;-3.50;94.50;;;;;;6122573;23;20909;-75
2023/02/11 01:16:20;;;;;;;3.33;3.22;;;-3.50;94.20;;;;;;6097183;23;20407;-76
2023/02/11 01:18:47;;;;;;;2.80;2.70;;;-3.60;93.80;;;;;;6096685;23;20753;-76
2023/02/11 01:21:15;;;;;;;3.10;3.00;;;-3.60;93.70;;;;;;6097891;23;20379;-75
2023/02/11 01:23:41;;;;;;;3.50;3.30;;;-3.60;93.40;;;;;;6096785;23;20919;-75
2023/02/11 01:26:08;;;;;;;3.20;3.10;;;-3.60;93.40;;;;;;6096851;23;20379;-76
2023/02/11 01:28:35;;;;;;;3.13;3.03;;;-3.60;93.70;;;;;;6097281;23;21079;-75
2023/02/11 01:31:03;;;;;;;3.30;3.20;;;-3.60;93.80;;;;;;6121904;23;20459;-76
2023/02/11 01:33:32;;;;;;;3.83;3.63;;;-3.70;94.70;;;;;;6098021;23;20447;-76
2023/02/11 01:36:04;;;;;;;3.53;3.33;;;-3.70;95.20;;;;;;6096628;23;20372;-76
2023/02/11 01:38:31;;;;;;;3.40;3.30;;;-3.80;97.30;;;;;;6097528;23;20836;-75
2023/02/11 01:41:07;;;;;;;3.60;3.40;;;-3.80;97.10;;;;;;6121334;23;20386;-80
2023/02/11 01:43:39;;;;;;;3.38;3.17;;;-3.80;97.00;;;;;;6097383;23;20431;-76
2023/02/11 01:46:32;;;;;;;3.58;3.38;;;-3.80;96.50;;;;;;6096414;23;20782;-77
2023/02/11 01:49:09;;;;;;;3.05;2.95;;;-3.80;96.60;;;;;;6120154;23;20387;-75
2023/02/11 01:51:40;;;;;;;3.83;3.63;;;-3.80;97.10;;;;;;6097005;23;20376;-76
2023/02/11 01:59:57;;;;;;;3.55;3.35;;;-3.80;94.40;;;;;;6122403;23;20383;-76
2023/02/11 02:02:38;;;;;;;3.33;3.22;;;-3.80;94.40;;;;;;6079979;23;20866;-82
2023/02/11 02:05:26;;;;;;;3.63;3.50;;;-3.90;97.30;;;;;;6107112;23;20378;-80
2023/02/11 02:08:06;;;;;;;3.58;3.47;;;-3.90;99.80;;;;;;6126279;23;20390;-80
2023/02/11 02:10:35;;;;;;;3.45;3.25;;;-3.90;99.60;;;;;;6126348;23;20366;-80
2023/02/11 02:13:02;;;;;;;3.80;3.60;;;-3.90;98.20;;;;;;6153129;23;20372;-81
2023/02/11 02:15:35;;;;;;;3.88;3.67;;;-3.80;97.50;;;;;;6125515;23;20402;-80
2023/02/11 02:18:20;;;;;;;3.40;3.30;;;-3.80;97.40;;;;;;6152537;23;20377;-80
2023/02/11 02:21:13;;;;;;;3.30;3.20;;;-3.90;97.60;;;;;;6125789;23;20440;-80
2023/02/11 02:24:04;;;;;;;3.50;3.40;;;-3.90;97.50;;;;;;6126275;23;20378;-81
2023/02/11 02:26:45;;;;;;;3.27;3.17;;;-4.00;98.60;;;;;;6151893;23;20405;-80
2023/02/11 02:29:21;;;;;;;3.40;3.20;;;-4.10;99.70;;;;;;6152546;23;20766;-81
2023/02/11 02:32:10;;;;;;;3.65;3.50;;;-4.10;99.20;;;;;;6126487;23;20370;-81
2023/02/11 02:35:04;;;;;;;3.42;3.33;;;-4.00;99.40;;;;;;6151874;23;20378;-80
2023/02/11 02:37:41;;;;;;;3.80;3.60;;;-4.00;98.60;;;;;;6100071;23;20382;-79
2023/02/11 02:40:25;;;;;;;4.37;4.07;;;-4.00;98.50;;;;;;6126408;23;20378;-81
2023/02/11 02:42:55;;;;;;;4.03;3.83;;;-4.10;99.40;;;;;;6125464;23;20370;-81
2023/02/11 02:45:21;;;;;;;3.55;3.45;;;-4.10;98.70;;;;;;6127173;23;20378;-80
2023/02/11 02:47:48;;;;;;;4.25;4.05;;;-4.10;98.30;;;;;;6125843;23;20688;-80
2023/02/11 02:50:20;;;;;;;4.40;4.20;;;-4.10;98.10;;;;;;6126947;23;20842;-81
2023/02/11 02:52:58;;;;;;;4.00;3.80;;;-4.20;99.20;;;;;;6151244;23;20692;-80
2023/02/11 02:55:27;;;;;;;4.23;4.03;;;-4.10;98.40;;;;;;6126795;23;20382;-80
2023/02/11 02:58:03;;;;;;;4.10;3.90;;;-4.10;98.20;;;;;;6125401;23;20464;-79
2023/02/11 03:00:46;;;;;;;4.18;3.97;;;-4.10;97.60;;;;;;6125347;23;20378;-80
2023/02/11 03:03:32;;;;;;;4.25;4.05;;;-4.10;97.70;;;;;;6131253;23;20454;-80
2023/02/11 03:06:11;;;;;;;4.10;3.90;;;-4.10;98.50;;;;;;6095755;23;20383;-80
2023/02/11 03:08:48;;;;;;;3.92;3.72;;;-4.10;98.20;;;;;;6097492;23;20459;-81
2023/02/11 03:11:18;;;;;;;3.60;3.40;;;-4.10;97.80;;;;;;6096368;23;20375;-80
2023/02/11 03:13:47;;;;;;;3.70;3.50;;;-4.10;97.70;;;;;;6121551;23;20387;-81
2023/02/11 03:16:18;;;;;;;3.47;3.38;;;-4.20;98.00;;;;;;6096634;23;20465;-81
2023/02/11 03:18:50;;;;;;;3.58;3.47;;;-4.20;97.50;;;;;;6097686;23;20434;-80
2023/02/11 03:21:18;;;;;;;3.80;3.60;;;-4.20;97.20;;;;;;6122382;23;20371;-81
2023/02/11 03:23:59;;;;;;;3.85;3.65;;;-4.20;97.00;;;;;;6122300;23;20384;-80
2023/02/11 03:26:38;;;;;;;3.85;3.65;;;-4.20;97.40;;;;;;6122547;23;20368;-80
2023/02/11 03:29:16;;;;;;;3.53;3.33;;;-4.20;98.10;;;;;;6095957;23;20382;-80
2023/02/11 03:32:11;;;;;;;3.78;3.58;;;-4.30;98.00;;;;;;6097703;23;20380;-80
2023/02/11 03:34:56;;;;;;;3.72;3.53;;;-4.30;99.40;;;;;;6096455;23;20380;-80
2023/02/11 03:37:32;;;;;;;3.40;3.30;;;-4.40;99.00;;;;;;6096012;23;20412;-81
2023/02/11 03:40:14;;;;;;;4.97;4.68;;;-4.40;98.40;;;;;;6097084;23;20372;-80
2023/02/11 03:42:58;;;;;;;5.47;5.18;;;-4.40;99.90;;;;;;6096056;23;20415;-80
2023/02/11 03:45:27;;;;;;;4.40;4.20;;;-4.50;99.90;;;;;;6096002;23;20399;-80
2023/02/11 03:48:03;;;;;;;5.83;5.53;;;-4.50;99.90;;;;;;6097535;23;20450;-81
2023/02/11 03:50:32;;;;;;;6.30;5.90;;;-4.60;99.90;;;;;;6121660;23;20375;-83
2023/02/11 03:53:01;;;;;;;4.97;4.78;;;-4.50;99.90;;;;;;6122864;23;20380;-81
2023/02/11 03:55:32;;;;;;;4.60;4.30;;;-4.50;99.90;;;;;;6096243;23;20423;-81
2023/02/11 03:57:59;;;;;;;4.70;4.50;;;-4.50;99.90;;;;;;6097557;23;20387;-80
2023/02/11 04:00:35;;;;;;;4.15;3.95;;;-4.50;99.90;;;;;;6096191;23;20768;-81
2023/02/11 04:03:03;;;;;;;4.40;4.20;;;-4.50;99.90;;;;;;6091686;23;20413;-80
2023/02/11 04:05:31;;;;;;;5.10;4.80;;;-4.50;99.90;;;;;;6092265;23;20382;-81
2023/02/11 04:07:58;;;;;;;4.80;4.60;;;-4.40;99.90;;;;;;6092115;23;20380;-82
2023/02/11 04:10:25;;;;;;;4.63;4.37;;;-4.40;99.90;;;;;;6090910;23;20432;-80
2023/02/11 04:12:52;;;;;;;4.57;4.38;;;-4.40;99.20;;;;;;6093328;23;20381;-81
2023/02/11 04:15:19;;;;;;;4.25;4.05;;;-4.40;99.30;;;;;;6091118;23;20753;-78
2023/02/11 04:17:46;;;;;;;3.83;3.63;;;-4.40;98.60;;;;;;6092106;23;20877;-81
2023/02/11 04:20:13;;;;;;;4.00;3.80;;;-4.30;98.20;;;;;;6091364;23;20386;-80
2023/02/11 04:22:40;;;;;;;3.97;3.78;;;-4.40;97.80;;;;;;6091197;23;20706;-81
2023/02/11 04:25:08;;;;;;;3.92;3.72;;;-4.50;98.40;;;;;;6091508;23;20857;-81
2023/02/11 04:27:35;;;;;;;3.92;3.72;;;-4.50;99.60;;;;;;6091060;23;20422;-80
2023/02/11 04:30:03;;;;;;;3.58;3.40;;;-4.60;99.90;;;;;;6093264;23;20436;-81
2023/02/11 04:32:30;;;;;;;4.20;4.00;;;-4.60;99.90;;;;;;6092739;23;20456;-81
2023/02/11 04:34:57;;;;;;;4.07;3.88;;;-4.70;99.90;;;;;;6091805;23;20401;-81
2023/02/11 04:37:24;;;;;;;4.00;3.80;;;-4.70;99.90;;;;;;6091097;23;20404;-81
2023/02/11 04:39:51;;;;;;;3.97;3.78;;;-4.60;99.90;;;;;;6091589;23;20385;-81
2023/02/11 04:42:17;;;;;;;4.07;3.88;;;-4.60;99.80;;;;;;6091622;23;20802;-78
2023/02/11 04:44:44;;;;;;;4.20;4.00;;;-4.60;98.80;;;;;;6091272;23;20434;-81
2023/02/11 04:47:14;;;;;;;3.58;3.38;;;-4.60;98.00;;;;;;6091852;23;20404;-81
2023/02/11 04:49:41;;;;;;;3.38;3.20;;;-4.60;98.20;;;;;;6090996;23;20702;-81
2023/02/11 04:52:08;;;;;;;3.53;3.33;;;-4.60;97.70;;;;;;6092980;23;20457;-81
2023/02/11 04:54:35;;;;;;;3.80;3.50;;;-4.60;98.20;;;;;;6092897;23;20377;-81
2023/02/11 04:57:02;;;;;;;3.85;3.65;;;-4.60;99.30;;;;;;6093427;23;20370;-82
2023/02/11 04:59:29;;;;;;;3.75;3.55;;;-4.60;98.90;;;;;;6093839;23;20377;-81
2023/02/11 05:01:56;;;;;;;3.50;3.30;;;-4.60;98.80;;;;;;6097168;23;21164;-82
2023/02/11 05:04:23;;;;;;;3.65;3.45;;;-4.70;99.40;;;;;;6123268;23;20418;-79
2023/02/11 05:06:50;;;;;;;3.17;3.07;;;-4.70;99.90;;;;;;6097906;23;20432;-81
2023/02/11 05:09:17;;;;;;;3.67;3.47;;;-4.70;99.90;;;;;;6098601;23;20384;-81
2023/02/11 05:11:44;;;;;;;3.60;3.40;;;-4.60;99.90;;;;;;6122826;23;20422;-81
2023/02/11 05:14:10;;;;;;;3.38;3.17;;;-4.60;99.90;;;;;;6098563;23;20376;-82
2023/02/11 05:16:38;;;;;;;3.28;3.10;;;-4.70;99.90;;;;;;6097359;23;20407;-82
2023/02/11 05:19:04;;;;;;;3.70;3.50;;;-4.70;99.90;;;;;;6098502;23;20392;-81
2023/02/11 05:21:31;;;;;;;2.92;2.83;;;-4.70;99.90;;;;;;6096942;23;20399;-82
2023/02/11 05:23:58;;;;;;;3.65;3.45;;;-4.70;99.90;;;;;;6123770;23;20455;-82
2023/02/11 05:26:25;;;;;;;3.20;3.10;;;-4.70;99.90;;;;;;6097087;23;20446;-82
2023/02/11 05:28:52;;;;;;;3.70;3.50;;;-4.70;99.90;;;;;;6098247;23;20447;-84
2023/02/11 05:31:19;;;;;;;3.42;3.25;;;-4.70;99.90;;;;;;6097999;23;20402;-82
2023/02/11 05:33:46;;;;;;;3.65;3.45;;;-4.70;99.90;;;;;;6122750;23;20388;-82
2023/02/11 05:36:13;;;;;;;3.47;3.33;;;-4.80;99.90;;;;;;6074320;23;20376;-81
2023/02/11 05:38:41;;;;;;;3.13;3.03;;;-4.70;99.90;;;;;;6122740;23;20724;-81
2023/02/11 05:41:09;;;;;;;3.50;3.40;;;-4.80;99.90;;;;;;6097710;23;20387;-82
2023/02/11 05:43:36;;;;;;;3.55;3.35;;;-4.80;99.90;;;;;;6096917;23;20606;-81
2023/02/11 05:46:04;;;;;;;3.38;3.25;;;-4.80;99.90;;;;;;6098250;23;20716;-82
2023/02/11 05:48:31;;;;;;;4.00;3.80;;;-4.80;99.90;;;;;;6122304;23;20376;-82
2023/02/11 05:50:58;;;;;;;3.42;3.33;;;-4.90;99.90;;;;;;6123683;23;20376;-83
2023/02/11 05:53:26;;;;;;;4.07;3.88;;;-4.90;99.90;;;;;;6096863;23;20426;-82
2023/02/11 05:55:53;;;;;;;3.90;3.70;;;-4.90;99.90;;;;;;6098318;23;20427;-81
2023/02/11 05:58:20;;;;;;;3.63;3.42;;;-4.90;99.90;;;;;;6097439;23;20403;-81
2023/02/11 06:00:47;;;;;;;3.22;3.13;;;-4.90;99.90;;;;;;6096826;23;20375;-82
2023/02/11 06:03:14;;;;;;;3.72;3.53;;;-4.90;99.90;;;;;;6096845;23;20435;-82
2023/02/11 06:05:42;;;;;;;3.90;3.70;;;-4.90;99.90;;;;;;6097556;23;20685;-82
2023/02/11 06:08:10;;;;;;;3.88;3.67;;;-4.90;99.90;;;;;;6123598;23;20379;-81
2023/02/11 06:10:37;;;;;;;3.70;3.50;;;-4.90;99.90;;;;;;6122935;23;20379;-82
2023/02/11 06:13:04;;;;;;;3.30;3.20;;;-4.90;99.90;;;;;;6097907;23;20403;-82
2023/02/11 06:15:31;;;;;;;3.60;3.45;;;-4.90;99.90;;;;;;6096453;23;20412;-81
2023/02/11 06:17:58;;;;;;;3.30;3.20;;;-4.90;99.20;;;;;;6097782;23;20463;-78
2023/02/11 06:20:25;;;;;;;3.58;3.47;;;-4.90;98.70;;;;;;6098277;23;20415;-81
2023/02/11 06:22:52;;;;;;;3.20;3.10;;;-4.90;98.40;;;;;;6122612;23;20386;-81
2023/02/11 06:25:19;;;;;;;3.85;3.65;;;-4.90;98.40;;;;;;6097778;23;20411;-81
2023/02/11 06:27:45;;;;;;;3.53;3.33;;;-4.90;99.90;;;;;;6122983;23;20708;-81
2023/02/11 06:30:13;;;;;;;3.63;3.42;;;-4.90;99.90;;;;;;6097843;23;20383;-81
2023/02/11 06:32:40;;;;;;;3.53;3.33;;;-5.00;99.90;;;;;;6122071;23;20399;-83
2023/02/11 06:35:12;;;;;;;3.25;3.15;;;-5.00;99.90;;;;;;6123516;23;20518;-80
2023/02/11 06:37:40;;;;;;;3.33;3.22;;;-5.00;99.90;;;;;;6096583;23;20383;-82
2023/02/11 06:40:09;;;;;;;3.17;3.03;;;-5.00;99.90;;;;;;6098011;23;20372;-82
2023/02/11 06:42:37;;;;;;;3.08;2.92;;;-5.00;99.90;;;;;;6096263;23;20390;-81
2023/02/11 06:45:07;;;;;;;3.35;3.25;;;-4.90;99.90;;;;;;6123310;23;20828;-81
2023/02/11 06:47:34;;;;;;;3.20;3.10;;;-5.00;99.70;;;;;;6096837;23;20382;-81
2023/02/11 06:50:02;;;;;;;3.45;3.25;;;-4.90;99.30;;;;;;6097641;23;20422;-81
2023/02/11 06:52:28;;;;;;;3.28;3.17;;;-4.90;98.90;;;;;;6123016;23;20372;-82
2023/02/11 06:54:55;;;;;;;3.60;3.40;;;-4.90;99.00;;;;;;6097347;23;20398;-81
2023/02/11 06:57:22;;;;;;;3.50;3.30;;;-4.90;99.00;;;;;;6098708;23;20368;-81
2023/02/11 06:59:49;;;;;;;3.55;3.35;;;-4.90;99.50;;;;;;6122822;23;20411;-83
2023/02/11 07:02:16;;;;;;;3.80;3.60;;;-4.80;99.90;;;;;;6123813;23;20542;-83
2023/02/11 07:04:46;;;;;;;3.20;3.10;;;-4.90;99.90;;;;;;6122712;23;20375;-81
2023/02/11 07:07:13;;;;;;;3.42;3.30;;;-4.80;99.90;;;;;;6098876;23;20709;-81
2023/02/11 07:09:40;;;;;;;3.38;3.28;;;-4.80;99.90;;;;;;6124264;23;20407;-80
2023/02/11 07:12:10;;;;;;;3.72;3.55;;;-4.80;99.90;;;;;;6123441;23;20443;-83
2023/02/11 07:14:37;;;;;;;3.45;3.35;;;-4.70;99.90;;;;;;6122423;23;20411;-80
2023/02/11 07:17:04;;;;;;;3.42;3.25;;;-4.70;99.90;;;;;;6122925;23;20380;-81
2023/02/11 07:19:31;;;;;;;3.35;3.15;;;-4.70;99.90;;;;;;6074048;23;20455;-81
2023/02/11 07:21:58;;;;;;;2.87;2.77;;;-4.70;99.90;;;;;;6097379;23;20487;-81
2023/02/11 07:24:25;;;;;;;3.30;3.15;;;-4.80;99.90;;;;;;6099562;23;20414;-82
2023/02/11 07:26:53;;;;;;;3.53;3.42;;;-4.80;99.90;;;;;;6098285;23;20402;-81
2023/02/11 07:29:20;;;;;;;3.50;3.40;;;-4.70;99.90;;;;;;6097793;23;20404;-81
2023/02/11 07:31:47;;;;;;;4.10;3.90;;;-4.70;99.90;;;;;;6097106;23;20387;-80
2023/02/11 07:34:14;;;;;;;3.55;3.35;;;-4.60;99.90;;;;;;6097935;23;20380;-83
2023/02/11 07:36:42;;;;;;;4.20;3.80;;;-4.60;99.90;;;;;;6121754;23;20408;-82
2023/02/11 07:39:09;;;;;;;3.90;3.70;;;-4.50;99.90;;;;;;6097818;23;20467;-81
2023/02/11 07:41:37;;;;;;;3.60;3.50;;;-4.40;99.90;;;;;;6093958;23;20531;-81
2023/02/11 07:44:04;;;;;;;3.70;3.50;;;-4.30;99.90;;;;;;6122446;23;20376;-81
2023/02/11 07:46:33;;;;;;;4.40;4.20;;;-4.10;99.90;;;;;;6096998;23;20376;-80
2023/02/11 07:49:00;;;;;;;3.97;3.78;;;-3.90;99.90;;;;;;6121315;23;20437;-82
2023/02/11 07:51:29;;;;;;;4.38;4.18;;;-3.50;99.90;;;;;;6096973;23;20376;-82
2023/02/11 07:53:58;;;;;;;4.07;3.75;;;-3.20;99.90;;;;;;6095892;23;20750;-80
2023/02/11 07:56:26;;;;;;;4.65;4.35;;;-2.80;99.90;;;;;;6121567;23;20375;-80
2023/02/11 07:58:55;;;;;;;3.83;3.63;;;-2.50;99.90;;;;;;6120459;23;20391;-81
2023/02/11 08:01:27;;;;;;;4.32;4.13;;;-2.00;99.90;;;;;;6121410;23;20367;-82
2023/02/11 08:03:58;;;;;;;3.80;3.60;;;-1.60;99.70;;;;;;6121333;23;20376;-81
2023/02/11 08:06:28;;;;;;;3.73;3.63;;;-1.30;98.10;;;;;;6097886;23;20422;-78
2023/02/11 08:08:55;;;;;;;3.95;3.78;;;-0.90;95.50;;;;;;6096215;23;20419;-80
2023/02/11 08:11:27;;;;;;;4.20;4.00;;;-0.60;95.20;;;;;;6097033;23;20434;-79
2023/02/11 08:13:55;;;;;;;3.92;3.70;;;-0.30;94.30;;;;;;6095926;23;20384;-80
2023/02/11 08:16:28;;;;;;;3.92;3.72;;;0.00;93.20;;;;;;6096605;23;20371;-79
2023/02/11 08:18:57;;;;;;;3.85;3.65;;;0.20;92.30;;;;;;6095926;23;20394;-79
2023/02/11 08:21:24;;;;;;;3.90;3.70;;;0.40;90.60;;;;;;6096324;23;20431;-79
2023/02/11 08:23:52;;;;;;;3.95;3.65;;;0.60;89.80;;;;;;6095905;23;20400;-79
2023/02/11 08:26:21;;;;;;;4.13;3.92;;;0.80;87.70;;;;;;6122987;23;20372;-80
2023/02/11 08:28:51;;;;;;;3.57;3.37;;;0.90;86.70;;;;;;6097860;23;20840;-80
2023/02/11 08:31:23;;;;;;;4.30;4.10;;;1.00;84.30;;;;;;6123699;23;20388;-81
2023/02/11 08:33:52;;;;;;;4.30;4.10;;;1.20;81.00;;;;;;6098086;23;20375;-80
2023/02/11 08:36:22;;;;;;;4.78;4.50;;;1.40;79.70;;;;;;6098249;23;20379;-80
2023/02/11 08:38:49;;;;;;;4.75;4.55;;;1.60;77.90;;;;;;6097757;23;20384;-80
2023/02/11 08:41:17;;;;;;;4.67;4.47;;;1.90;76.80;;;;;;6098511;23;20368;-80
2023/02/11 08:43:44;;;;;;;4.85;4.55;;;2.10;75.00;;;;;;6123238;23;20403;-80
2023/02/11 08:46:15;;;;;;;4.45;4.25;;;2.20;72.50;;;;;;6098495;23;20391;-81
2023/02/11 08:48:42;;;;;;;4.78;4.47;;;2.40;72.50;;;;;;6122982;23;20426;-80
2023/02/11 08:51:13;;;;;;;4.30;4.00;;;2.60;70.80;;;;;;6124152;23;20462;-81
2023/02/11 08:53:40;;;;;;;4.28;4.07;;;2.80;70.40;;;;;;6098187;23;20437;-81
2023/02/11 08:56:08;;;;;;;4.10;3.90;;;3.00;70.10;;;;;;6097898;23;20431;-80
2023/02/11 08:58:39;;;;;;;3.93;3.73;;;3.20;68.00;;;;;;6097736;23;20442;-81
2023/02/11 09:01:14;;;;;;;3.38;3.28;;;3.30;67.30;;;;;;6097904;23;20402;-80
2023/02/11 09:03:41;;;;;;;3.65;3.45;;;3.50;66.00;;;;;;6098380;23;20425;-80
2023/02/11 09:06:10;;;;;;;4.07;3.88;;;3.50;65.00;;;;;;6097727;23;20438;-80
2023/02/11 09:08:42;;;;;;;4.20;4.00;;;3.60;64.40;;;;;;6098501;23;20422;-80
2023/02/11 09:11:12;;;;;;;3.60;3.40;;;3.80;64.10;;;;;;6098439;23;20372;-82
2023/02/11 09:13:41;;;;;;;3.70;3.50;;;3.80;63.20;;;;;;6097909;23;20392;-81
2023/02/11 09:16:19;;;;;;;4.03;3.83;;;3.80;62.20;;;;;;6097869;23;20380;-81
2023/02/11 09:18:47;;;;;;;3.40;3.20;;;3.70;62.60;;;;;;6098145;23;20392;-80
2023/02/11 09:21:16;;;;;;;3.63;3.35;;;3.70;62.10;;;;;;6097123;23;20447;-81
2023/02/11 09:23:43;;;;;;;3.60;3.40;;;3.80;62.40;;;;;;6074077;23;20493;-81
2023/02/11 09:26:18;;;;;;;3.70;3.50;;;3.90;61.80;;;;;;6097211;23;20375;-80
2023/02/11 09:28:45;;;;;;;3.47;3.28;;;3.90;61.70;;;;;;6123578;23;20379;-80
2023/02/11 09:31:16;;;;;;;3.85;3.55;;;4.10;61.20;;;;;;6097160;23;20375;-81
2023/02/11 09:33:48;;;;;;;3.10;2.90;;;4.30;60.10;;;;;;6098389;23;20384;-80
2023/02/11 09:36:23;;;;;;;2.80;2.70;;;4.40;59.80;;;;;;6097041;23;20372;-81
2023/02/11 09:38:51;;;;;;;3.25;3.15;;;4.60;56.80;;;;;;6098044;23;20388;-80
2023/02/11 09:41:30;;;;;;;3.33;3.22;;;4.60;56.60;;;;;;6097379;23;20698;-80
2023/02/11 09:44:04;;;;;;;2.95;2.85;;;4.50;55.90;;;;;;6097003;23;20755;-79
2023/02/11 09:46:38;;;;;;;2.70;2.60;;;4.70;56.80;;;;;;6098298;23;20376;-80
2023/02/11 09:49:07;;;;;;;3.38;3.17;;;4.80;54.50;;;;;;6097112;23;20415;-82
2023/02/11 09:51:52;;;;;;;2.40;2.30;;;4.90;55.90;;;;;;6098369;23;20464;-81
2023/02/11 09:54:36;;;;;;;2.92;2.80;;;5.00;53.60;;;;;;6096890;23;20444;-83
2023/02/11 09:57:05;;;;;;;2.27;2.10;;;5.20;52.50;;;;;;6096883;23;20384;-82
2023/02/11 09:59:32;;;;;;;2.35;2.25;;;5.50;51.90;;;;;;6098103;23;20730;-81
2023/02/11 10:02:12;;;;;;;2.22;2.13;;;5.70;52.20;;;;;;6096934;23;20399;-81
2023/02/11 10:04:51;;;;;;;1.55;1.55;;;5.80;51.30;;;;;;6098036;23;20371;-81
2023/02/11 10:07:27;;;;;;;2.08;1.98;;;5.90;50.80;;;;;;6097268;23;20399;-80
2023/02/11 10:10:34;;;;;;;2.13;2.03;;;5.90;51.50;;;;;;6097752;23;20387;-82
2023/02/11 10:13:08;;;;;;;1.95;1.85;;;6.00;51.90;;;;;;6097052;23;20824;-82
2023/02/11 10:15:55;;;;;;;1.92;1.83;;;5.90;51.90;;;;;;6098003;23;20431;-81
2023/02/11 10:19:04;;;;;;;2.03;1.92;;;5.90;51.50;;;;;;6122520;23;20395;-82
2023/02/11 10:22:01;;;;;;;1.80;1.70;;;6.00;51.20;;;;;;6096833;23;20392;-82
2023/02/11 10:24:28;;;;;;;2.20;2.10;;;6.20;51.10;;;;;;6121067;23;20367;-81
2023/02/11 10:26:56;;;;;;;2.03;1.92;;;6.30;50.10;;;;;;6097581;23;20383;-81
2023/02/11 10:29:31;;;;;;;1.77;1.67;;;6.30;50.50;;;;;;6097028;23;20700;-81
2023/02/11 10:32:01;;;;;;;2.35;2.25;;;6.50;49.00;;;;;;6098660;23;20407;-83
2023/02/11 10:34:28;;;;;;;2.45;2.30;;;6.70;48.40;;;;;;6099296;23;20427;-81
2023/02/11 10:36:55;;;;;;;2.72;2.63;;;6.70;47.90;;;;;;6100999;23;20442;-83
2023/02/11 10:39:25;;;;;;;3.30;3.10;;;6.70;47.20;;;;;;6098789;23;20439;-83
2023/02/11 10:42:01;;;;;;;2.70;2.60;;;6.80;47.60;;;;;;6101799;23;20427;-81
2023/02/11 10:44:40;;;;;;;3.08;2.88;;;7.10;46.70;;;;;;6103203;23;20432;-82
2023/02/11 10:47:32;;;;;;;3.03;2.92;;;7.20;46.80;;;;;;6104327;23;20376;-83
2023/02/11 10:50:02;;;;;;;3.00;2.80;;;7.20;46.20;;;;;;6099783;23;20721;-82
2023/02/11 10:52:30;;;;;;;2.65;2.55;;;7.20;46.00;;;;;;6103056;23;20368;-84
2023/02/11 10:55:09;;;;;;;2.90;2.72;;;7.40;46.60;;;;;;6098734;23;20488;-83
2023/02/11 10:57:43;;;;;;;2.85;2.65;;;7.60;46.90;;;;;;6102490;23;20376;-82
2023/02/11 11:00:41;;;;;;;2.73;2.63;;;7.80;46.60;;;;;;6100344;23;20384;-81
2023/02/11 11:03:19;;;;;;;2.72;2.63;;;8.20;46.90;;;;;;6114081;23;20383;-82
2023/02/11 11:05:52;;;;;;;2.28;2.17;;;8.40;44.30;;;;;;6098915;23;20388;-82
2023/02/11 11:08:19;;;;;;;2.45;2.25;;;8.40;43.20;;;;;;6101430;23;20737;-80
2023/02/11 11:11:02;;;;;;;2.05;1.95;;;8.50;42.20;;;;;;6098296;23;20411;-82
2023/02/11 11:13:52;;;;;;;2.47;2.38;;;8.60;42.30;;;;;;6102100;23;21082;-81
2023/02/11 11:16:37;;;;;;;2.10;2.00;;;8.50;42.90;;;;;;6077575;23;20371;-81
2023/02/11 11:19:07;;;;;;;2.00;1.90;;;8.60;40.80;;;;;;6126743;23;20864;-83
2023/02/11 11:21:48;;;;;;;1.95;1.85;;;8.60;40.90;;;;;;6107252;23;20807;-81
2023/02/11 11:24:23;;;;;;;1.70;1.60;;;8.80;39.90;;;;;;6109616;23;20429;-81
2023/02/11 11:26:56;;;;;;;1.85;1.75;;;8.90;38.60;;;;;;6103545;23;20470;-82
2023/02/11 11:29:35;;;;;;;1.58;1.48;;;9.10;39.20;;;;;;6107668;23;20376;-81
2023/02/11 11:32:10;;;;;;;1.77;1.67;;;9.30;38.90;;;;;;6102912;23;20375;-80
2023/02/11 11:34:41;;;;;;;1.50;1.40;;;9.50;38.10;;;;;;6098652;23;20390;-83
2023/02/11 11:37:27;;;;;;;1.35;1.35;;;9.40;37.70;;;;;;6101998;23;20386;-85
2023/02/11 11:40:00;;;;;;;1.75;1.65;;;9.60;38.10;;;;;;6100473;23;20434;-82
2023/02/11 11:42:30;;;;;;;1.98;1.88;;;9.20;38.20;;;;;;6124314;23;20371;-83
2023/02/11 11:45:00;;;;;;;1.90;1.80;;;9.20;38.50;;;;;;6101166;23;20379;-82
2023/02/11 11:47:38;;;;;;;1.67;1.60;;;9.20;39.40;;;;;;6096578;23;20383;-82
2023/02/11 11:50:29;;;;;;;1.80;1.70;;;9.40;38.40;;;;;;6096097;23;20383;-82
2023/02/11 11:53:15;;;;;;;1.42;1.40;;;9.60;38.70;;;;;;6098168;23;20416;-80
2023/02/11 11:56:03;;;;;;;1.60;1.50;;;9.70;37.90;;;;;;6101289;23;20376;-82
2023/02/11 11:58:31;;;;;;;1.80;1.70;;;9.50;37.70;;;;;;6102657;23;20379;-81
2023/02/11 12:01:07;;;;;;;1.58;1.48;;;9.60;37.60;;;;;;6097731;23;20415;-81
2023/02/11 12:03:53;;;;;;;1.70;1.60;;;9.70;38.40;;;;;;6098142;23;20454;-84
2023/02/11 12:06:26;;;;;;;1.40;1.40;;;9.90;38.10;;;;;;6122296;23;20452;-80
2023/02/11 12:09:14;;;;;;;1.65;1.55;;;10.10;37.20;;;;;;6124674;23;20415;-82
2023/02/11 12:11:59;;;;;;;1.45;1.35;;;10.20;35.90;;;;;;6097864;23;20404;-82
2023/02/11 12:14:41;;;;;;;1.50;1.40;;;10.20;37.30;;;;;;6097538;23;20739;-82
2023/02/11 12:17:23;;;;;;;1.50;1.40;;;10.10;36.20;;;;;;6100061;23;20447;-82
2023/02/11 12:19:55;;;;;;;1.42;1.40;;;10.10;35.70;;;;;;6120225;23;20391;-82
2023/02/11 12:22:28;;;;;;;1.60;1.50;;;10.30;37.10;;;;;;6099101;23;20383;-80
2023/02/11 12:25:22;;;;;;;1.35;1.35;;;10.50;37.30;;;;;;6107977;23;20675;-82
2023/02/11 12:28:01;;;;;;;1.50;1.50;;;10.70;36.40;;;;;;6122701;23;20451;-79
2023/02/11 12:30:52;;;;;;;1.50;1.40;;;11.00;37.70;;;;;;6098600;23;20411;-81
2023/02/11 12:33:38;;;;;;;1.60;1.50;;;11.10;35.10;;;;;;6122303;23;20387;-83
2023/02/11 12:36:23;;;;;;;1.30;1.30;;;11.20;35.70;;;;;;6121076;23;20403;-82
2023/02/11 12:39:00;;;;;;;1.77;1.50;;;11.50;35.50;;;;;;6098646;23;20399;-82
2023/02/11 12:45:07;;;;;;;1.70;1.60;;;11.40;35.80;;;;;;6122930;23;20435;-82
2023/02/11 12:47:41;;;;;;;1.38;1.33;;;11.40;34.90;;;;;;6122643;23;20388;-82
2023/02/11 12:50:29;;;;;;;1.27;1.27;;;10.90;34.70;;;;;;6098438;23;20841;-81
2023/02/11 12:53:40;;;;;;;1.40;1.40;;;11.30;36.20;;;;;;6123191;23;20677;-82
2023/02/11 12:56:15;;;;;;;2.00;1.90;;;11.70;34.80;;;;;;6044907;23;20426;-80
2023/02/11 12:58:45;;;;;;;1.90;1.80;;;11.80;34.30;;;;;;6097421;23;20716;-80
2023/02/11 13:01:39;;;;;;;1.65;1.55;;;12.00;35.20;;;;;;6097656;23;20915;-82
2023/02/11 13:04:12;;;;;;;1.63;1.52;;;11.40;34.70;;;;;;6097669;23;20376;-82
2023/02/11 13:06:45;;;;;;;1.50;1.40;;;11.60;35.50;;;;;;6099137;23;20402;-81
2023/02/11 13:09:25;;;;;;;1.50;1.40;;;12.00;35.10;;;;;;6099633;23;20372;-81
2023/02/11 13:11:56;;;;;;;1.75;1.65;;;12.10;34.20;;;;;;6097080;23;20704;-82
2023/02/11 13:14:28;;;;;;;1.90;1.80;;;12.00;34.80;;;;;;6098814;23;20700;-83
2023/02/11 13:16:57;;;;;;;1.92;1.83;;;12.00;34.50;;;;;;6097470;23;20372;-80
2023/02/11 13:19:31;;;;;;;1.80;1.70;;;11.90;35.80;;;;;;6097636;23;20375;-82
2023/02/11 13:22:21;;;;;;;1.42;1.42;;;11.70;34.30;;;;;;6096481;23;20591;-84
2023/02/11 13:25:26;;;;;;;1.85;1.75;;;11.80;35.20;;;;;;6054756;23;20411;-82